»·PEaware :: N851TB KSNA-KSNA

N851TB :: KSNA-KSNA

FLIGHT INFORMATION

Flight Status: Arrived
Operator: Privately registered:
United States
More flights under this callsign
Pilot: Adam Paleczny (10444)
Aircraft: PIPER PA-32 SARATOGA
(PA32)
More flights by this aircraft type
Origin: KSNA John Wayne-Orange Co
United States
Destination: KSNA John Wayne-Orange Co
United States
More flights between these airports :: More routes between these airports
Route: SLI
File this flight plan on PilotEdge
Remarks: Request I-1 Rating
Altitude:
(Current/Filed)
3,000ft
Speed:
(Current/Filed)
120kts
Departed: 08-Aug-17 08:45 AM
Arrived: 08-Aug-17 09:07 AM
Distance/Time
Traveled:
0nm/0:22
Distance/Time
To Go:
Arrived

Flight Plot

Page will automatically refresh every two minutes.


Map Options




Map Legend


Flown Route
Filed Route
Departure Airport
Arrival Airport
Navaid (VOR, NDB)
Fix

Horizontal Profiles

Position Reports

Time Latitude Longitude Heading Altitude Ground
Speed
08-Aug-17 08:12 33.670885 -117.867584 32 60ft 0kts
08-Aug-17 08:20 33.670885 -117.867588 32 60ft 0kts
08-Aug-17 08:21 33.670885 -117.867588 32 60ft 0kts
08-Aug-17 08:22 33.670885 -117.867588 32 60ft 0kts
08-Aug-17 08:23 33.670885 -117.867588 32 60ft 0kts
08-Aug-17 08:24 33.670885 -117.867588 32 60ft 0kts
08-Aug-17 08:25 33.670885 -117.867588 32 60ft 0kts
08-Aug-17 08:26 33.670885 -117.867588 32 60ft 0kts
08-Aug-17 08:27 33.670885 -117.867588 32 60ft 0kts
08-Aug-17 08:28 33.670885 -117.867588 32 60ft 0kts
08-Aug-17 08:29 33.670885 -117.867588 32 60ft 0kts
08-Aug-17 08:30 33.670885 -117.867588 32 60ft 0kts
08-Aug-17 08:31 33.670885 -117.867588 32 60ft 0kts
08-Aug-17 08:32 33.670885 -117.867588 32 60ft 0kts
08-Aug-17 08:33 33.670885 -117.867588 32 60ft 0kts
08-Aug-17 08:34 33.670885 -117.867588 32 60ft 0kts
08-Aug-17 08:35 33.670885 -117.867588 32 60ft 0kts
08-Aug-17 08:36 33.670885 -117.867588 32 60ft 0kts
08-Aug-17 08:37 33.670896 -117.867580 33 60ft 0kts
08-Aug-17 08:38 33.670896 -117.867580 33 60ft 0kts
08-Aug-17 08:39 33.670896 -117.867580 33 60ft 0kts
08-Aug-17 08:40 33.670896 -117.867580 33 60ft 0kts
08-Aug-17 08:41 33.672239 -117.868080 32 60ft 16kts
08-Aug-17 08:42 33.674544 -117.866848 28 60ft 12kts
08-Aug-17 08:43 33.678458 -117.864364 26 59ft 8kts
08-Aug-17 08:44 33.680007 -117.863723 298 60ft 0kts
08-Aug-17 08:45 33.680007 -117.863723 298 60ft 0kts
08-Aug-17 08:46 33.680007 -117.863723 298 60ft 0kts
08-Aug-17 08:47 33.679748 -117.864418 203 59ft 4kts
08-Aug-17 08:48 33.663751 -117.877986 228 864ft 83kts
08-Aug-17 08:49 33.647106 -117.903425 231 1823ft 105kts
08-Aug-17 08:50 33.628062 -117.933307 232 2837ft 121kts
08-Aug-17 08:51 33.615875 -117.975584 310 2985ft 168kts
08-Aug-17 08:52 33.656663 -117.970277 21 2988ft 146kts
08-Aug-17 08:53 33.691947 -117.953094 21 2989ft 131kts
08-Aug-17 08:54 33.724942 -117.936999 21 2990ft 126kts
08-Aug-17 08:55 33.757267 -117.921234 21 2990ft 125kts
08-Aug-17 08:56 33.789319 -117.905606 21 2990ft 124kts
08-Aug-17 08:57 33.821283 -117.890245 21 2990ft 123kts
08-Aug-17 08:58 33.853156 -117.875164 21 2990ft 123kts
08-Aug-17 08:59 33.884986 -117.860411 21 2990ft 122kts
08-Aug-17 09:00 33.905379 -117.835637 113 2988ft 120kts
08-Aug-17 09:01 33.888347 -117.800810 119 2992ft 121kts
08-Aug-17 09:02 33.862798 -117.779093 170 2992ft 123kts
08-Aug-17 09:03 33.828618 -117.774330 181 2989ft 125kts
08-Aug-17 09:04 33.799275 -117.790622 207 2652ft 111kts
08-Aug-17 09:05 33.772523 -117.807408 208 2097ft 107kts
08-Aug-17 09:06 33.746188 -117.824141 207 1520ft 107kts
08-Aug-17 09:07 33.719674 -117.840963 207 934ft 108kts
08-Aug-17 09:08 33.696211 -117.855970 207 373ft 84kts
08-Aug-17 09:09 33.676538 -117.868314 207 60ft 46kts
08-Aug-17 09:10 33.674479 -117.868552 165 59ft 4kts
08-Aug-17 09:11 33.673848 -117.867453 117 60ft 0kts
08-Aug-17 09:12 33.673347 -117.866997 222 60ft 3kts
08-Aug-17 09:13 33.671601 -117.868253 128 60ft 10kts
08-Aug-17 09:14 33.670919 -117.867582 29 60ft 0kts
08-Aug-17 09:15 33.670919 -117.867582 29 60ft 0kts
08-Aug-17 09:16 33.670919 -117.867582 29 60ft 0kts
08-Aug-17 09:17 33.670919 -117.867582 29 60ft 0kts
08-Aug-17 09:18 33.670919 -117.867582 29 60ft 0kts
08-Aug-17 09:22 33.670889 -117.867574 32 60ft 0kts
08-Aug-17 09:23 33.670889 -117.867574 32 60ft 0kts

Navigation Log

Ident Type
1. KSNA Airport
2. SLI Navaid
3. KSNA Airport